Latest Weather Observations for Mount Crawford

IDS60901

Issued at 7:21 pm CDT Saturday 16 December 2017 (issued every 10 minutes, with the page automatically refreshed every 10 minutes)

About weather observations | Map of Adelaide area stations | Latest observations for Adelaide area | Other Formats
Station Details ID: 023878 Name: MOUNT CRAWFORD AWS Lat: -34.73 Lon: 138.93 Height: 525.0 m
Data from the previous 72 hours. | See also: Recent months at Mount Crawford
Date/Time
CDT
Temp
°C
App
Temp
°C
Dew
Point
°C
Rel
Hum
%
Delta-T
°C
Wind Press
QNH
hPa
Press
MSL
hPa
Rain since
9am
mm
Dir  Spd
km/h
Gust
km/h
Spd
kts
Gust
kts
16/07:00pm 22.0 18.1 10.8 49 6.3 SE 22 35 12 19 1014.5 1012.7 0.0
16/06:30pm 23.9 20.4 10.2 42 7.7 SE 19 26 10 14 1014.2 1012.4 0.0
16/06:00pm 24.7 20.5 9.8 39 8.4 ESE 22 30 12 16 1013.8 1012.0 0.0
16/05:30pm 26.4 23.5 9.7 35 9.5 ENE 15 24 8 13 1013.6 1011.8 0.0
16/05:00pm 26.8 23.5 9.6 34 9.7 SE 17 28 9 15 1013.8 1012.0 0.0
16/04:30pm 27.6 26.2 9.4 32 10.3 E 7 11 4 6 1013.9 1012.1 0.0
16/04:00pm 27.4 23.4 5.1 24 11.7 NE 15 22 8 12 1014.1 1012.3 0.0
16/03:30pm 27.0 23.7 4.7 24 11.6 NNE 11 17 6 9 1014.5 1012.7 0.0
16/03:00pm 27.6 23.7 5.2 24 11.8 N 15 20 8 11 1014.7 1012.9 0.0
16/02:30pm 25.1 22.2 4.8 27 10.5 NE 9 13 5 7 1014.9 1013.1 0.0
16/02:00pm 24.4 21.1 6.2 31 9.6 WNW 13 19 7 10 1015.3 1013.5 0.0
16/01:30pm 25.2 23.4 7.8 33 9.5 W 7 13 4 7 1015.5 1013.7 0.0
16/01:00pm 24.1 21.6 6.4 32 9.3 NW 9 15 5 8 1015.9 1014.1 0.0
16/12:30pm 23.2 20.6 7.7 37 8.3 NNW 11 19 6 10 1016.1 1014.3 0.0
16/12:00pm 22.2 20.5 8.3 41 7.5 ENE 7 11 4 6 1016.2 1014.4 0.0
16/11:30am 22.4 20.7 9.9 45 7.0 NNW 9 17 5 9 1016.2 1014.4 0.0
16/11:00am 20.2 18.2 8.8 48 6.1 E 9 17 5 9 1016.5 1014.7 0.0
16/10:30am 19.2 17.2 8.8 51 5.6 NNE 9 13 5 7 1016.5 1014.7 0.0
16/10:00am 18.7 16.8 9.2 54 5.1 SE 9 15 5 8 1016.6 1014.8 0.0
16/09:30am 18.3 16.8 10.4 60 4.3 ESE 9 15 5 8 1016.5 1014.7 0.0
16/09:00am 17.5 15.8 9.9 61 4.1 ESE 9 15 5 8 1016.4 1014.6 0.0
16/08:30am 16.1 14.1 11.5 74 2.5 SE 13 19 7 10 1016.1 1014.3 0.0
16/08:00am 14.8 12.6 12.1 84 1.5 ESE 15 20 8 11 1015.6 1013.8 0.0
16/07:30am 13.4 11.1 11.8 90 0.9 SE 15 19 8 10 1015.5 1013.7 0.0
16/07:00am 12.9 10.9 12.7 99 0.1 SE 15 19 8 10 1015.2 1013.4 0.0
16/06:30am 12.2 9.6 12.0 99 0.1 SE 17 20 9 11 1014.6 1012.8 0.0
16/06:00am 11.5 8.7 11.5 100 0.0 SE 17 22 9 12 1014.3 1012.5 0.0
16/05:30am 10.9 8.0 10.9 100 0.0 SE 17 20 9 11 1014.3 1012.5 0.0
16/05:00am 10.4 7.7 10.2 99 0.1 ESE 15 19 8 10 1014.0 1012.2 0.0
16/04:30am 10.6 7.5 10.4 99 0.1 SE 17 19 9 10 1013.8 1012.0 0.0
16/04:00am 11.0 8.0 10.8 99 0.1 SE 17 20 9 11 1013.8 1012.0 0.0
16/03:30am 11.4 8.5 11.1 98 0.2 SE 17 22 9 12 1013.5 1011.7 0.0
16/03:00am 11.5 8.2 10.9 96 0.3 SE 19 22 10 12 1013.7 1011.9 0.0
16/02:30am 11.5 8.1 10.7 95 0.4 SE 19 24 10 13 1013.8 1012.0 0.0
16/02:00am 12.0 8.5 10.9 93 0.6 SSE 20 26 11 14 1013.9 1012.1 0.0
16/01:30am 11.8 8.4 10.7 93 0.6 SE 19 26 10 14 1013.8 1012.0 0.0
16/01:00am 12.1 8.3 11.0 93 0.6 SSE 22 28 12 15 1014.0 1012.2 0.0
16/12:30am 12.2 8.3 10.8 91 0.7 SSE 22 28 12 15 1014.1 1012.3 0.0
16/12:00am 12.3 8.7 10.5 89 1.0 SSE 20 28 11 15 1014.2 1012.4 0.0
 
Date/Time
CDT
Temp
°C
App
Temp
°C
Dew
Point
°C
Rel
Hum
%
Delta-T
°C
Wind Press
QNH
hPa
Press
MSL
hPa
Rain since
9am
mm
Dir  Spd
km/h
Gust
km/h
Spd
kts
Gust
kts
15/11:30pm 12.5 8.5 10.6 88 1.0 SSE 22 30 12 16 1014.3 1012.5 0.0
15/11:00pm 12.5 8.9 10.7 89 1.0 SE 20 32 11 17 1014.2 1012.4 0.0
15/10:30pm 12.7 9.4 10.9 89 1.0 SE 19 26 10 14 1014.2 1012.4 0.0
15/10:00pm 13.3 10.0 10.8 85 1.3 SE 19 26 10 14 1014.1 1012.3 0.0
15/09:30pm 14.4 11.6 10.0 75 2.3 SE 15 20 8 11 1013.6 1011.8 0.0
15/09:00pm 16.4 14.4 10.0 66 3.5 SW 11 15 6 8 1013.2 1011.3 0.0
15/08:30pm 17.3 15.0 9.0 58 4.4 SW 11 15 6 8 1013.2 1011.3 0.0
15/08:00pm 18.5 15.7 8.7 53 5.2 WSW 13 19 7 10 1012.8 1011.0 0.0
15/07:30pm 20.1 17.0 8.8 48 6.1 WSW 15 20 8 11 1012.5 1010.7 0.0
15/07:00pm 21.0 17.6 9.3 47 6.4 WSW 17 30 9 16 1012.2 1010.4 0.0
15/06:30pm 21.9 18.7 9.8 46 6.7 WSW 17 26 9 14 1011.8 1010.0 0.0
15/06:00pm 22.2 18.6 9.7 45 6.9 WSW 19 28 10 15 1011.7 1009.8 0.0
15/05:30pm 22.6 19.3 9.7 44 7.2 WSW 17 26 9 14 1011.6 1009.7 0.0
15/05:00pm 23.5 19.8 9.5 41 7.8 WSW 19 32 10 17 1011.5 1009.6 0.0
15/04:30pm 23.0 18.6 9.0 41 7.7 W 22 30 12 16 1011.7 1009.8 0.0
15/04:00pm 23.8 20.3 10.8 44 7.4 WSW 20 33 11 18 1011.7 1009.8 0.0
15/03:30pm 22.5 17.1 9.6 44 7.2 W 28 39 15 21 1011.9 1010.1 0.0
15/03:00pm 23.4 19.7 10.1 43 7.5 W 20 35 11 19 1012.1 1010.3 0.0
15/02:30pm 24.0 20.4 10.7 43 7.6 W 20 32 11 17 1012.1 1010.3 0.0
15/02:00pm 23.2 19.2 10.3 44 7.3 WNW 22 32 12 17 1012.6 1010.8 0.0
15/01:30pm 23.0 19.4 10.4 45 7.1 WNW 20 32 11 17 1012.8 1011.0 0.0
15/01:00pm 22.2 19.3 9.7 45 6.9 W 15 22 8 12 1013.1 1011.2 0.0
15/12:30pm 21.6 18.4 10.1 48 6.4 NW 17 26 9 14 1013.3 1011.4 0.0
15/12:00pm 20.6 17.7 9.8 50 5.9 WNW 15 24 8 13 1013.7 1011.9 0.0
15/11:30am 19.5 16.7 10.0 54 5.2 NW 15 26 8 14 1013.9 1012.1 0.0
15/11:00am 19.1 17.0 9.6 54 5.2 WNW 11 20 6 11 1014.0 1012.2 0.0
15/10:30am 18.6 17.3 11.2 62 4.1 WSW 9 13 5 7 1014.2 1012.4 0.0
15/10:00am 18.6 17.9 12.1 66 3.7 NE 7 13 4 7 1014.3 1012.5 0.0
15/09:30am 16.3 15.0 11.2 72 2.8 NNE 9 13 5 7 1014.3 1012.5 0.0
15/09:00am 15.1 13.6 11.9 81 1.8 ENE 11 15 6 8 1014.3 1012.5 0.0
15/08:30am 13.6 11.6 12.8 95 0.4 E 15 19 8 10 1014.3 1012.5 0.0
15/08:00am 12.6 10.1 12.4 99 0.1 E 17 20 9 11 1014.2 1012.4 0.0
15/07:30am 11.8 9.5 11.6 99 0.1 ESE 15 20 8 11 1014.1 1012.3 0.0
15/07:00am 11.2 9.1 11.2 100 0.0 ESE 13 17 7 9 1013.9 1012.1 0.0
15/06:30am 10.2 7.5 10.2 100 0.0 ESE 15 19 8 10 1013.7 1011.9 0.0
15/06:00am 9.8 6.9 9.8 100 0.0 ESE 15 19 8 10 1013.5 1011.7 0.0
15/05:30am 9.8 6.5 9.7 99 0.1 SE 17 19 9 10 1013.3 1011.4 0.0
15/05:00am 10.2 7.0 10.1 99 0.1 SE 17 22 9 12 1012.9 1011.1 0.0
15/04:30am 10.6 7.0 10.4 99 0.1 SSE 20 26 11 14 1012.6 1010.8 0.0
15/04:00am 10.8 7.2 10.6 99 0.1 SSE 20 24 11 13 1012.6 1010.8 0.0
15/03:30am 10.8 7.3 10.8 100 0.0 SSE 20 28 11 15 1012.5 1010.7 0.0
15/03:00am 10.9 7.4 10.9 100 0.0 SSE 20 28 11 15 1012.7 1010.9 0.0
15/02:30am 11.1 7.7 11.1 100 0.0 SSE 20 28 11 15 1012.9 1011.1 0.0
15/02:00am 11.1 7.3 11.1 100 0.0 SSE 22 32 12 17 1013.2 1011.3 0.0
15/01:30am 11.4 7.7 11.4 100 0.0 SE 22 30 12 16 1013.5 1011.7 0.0
15/01:00am 11.4 8.0 11.4 100 0.0 SE 20 26 11 14 1013.7 1011.9 0.0
15/12:30am 11.5 8.2 11.5 100 0.0 SSE 20 26 11 14 1013.9 1012.1 0.0
15/12:00am 11.5 8.3 11.3 99 0.1 SE 19 28 10 15 1014.0 1012.2 0.0
 
Date/Time
CDT
Temp
°C
App
Temp
°C
Dew
Point
°C
Rel
Hum
%
Delta-T
°C
Wind Press
QNH
hPa
Press
MSL
hPa
Rain since
9am
mm
Dir  Spd
km/h
Gust
km/h
Spd
kts
Gust
kts
14/11:30pm 11.7 8.4 11.5 99 0.1 SSE 20 26 11 14 1013.9 1012.1 0.0
14/11:00pm 12.0 8.3 11.5 97 0.3 SSE 22 28 12 15 1013.9 1012.1 0.0
14/10:30pm 12.4 8.9 10.8 90 0.9 SE 20 26 11 14 1013.9 1012.1 0.0
14/10:00pm 12.8 9.3 10.3 85 1.3 SE 19 28 10 15 1013.7 1011.9 0.0
14/09:30pm 13.4 10.2 9.8 79 1.9 SE 17 24 9 13 1013.5 1011.7 0.0
14/09:00pm 14.3 10.5 9.1 71 2.7 SE 19 26 10 14 1013.5 1011.7 0.0
14/08:30pm 15.2 11.7 8.7 65 3.4 SE 17 22 9 12 1013.3 1011.4 0.0
14/08:00pm 16.5 12.9 8.5 59 4.2 SE 17 22 9 12 1013.1 1011.2 0.0
14/07:30pm 18.4 15.3 8.7 53 5.2 SE 15 22 8 12 1012.6 1010.8 0.0
14/07:00pm 19.2 17.0 9.4 53 5.3 SE 11 13 6 7 1012.2 1010.4 0.0
14/06:30pm 21.1 19.2 10.6 51 5.9 S 11 15 6 8 1012.0 1010.2 0.0
14/06:00pm 22.1 20.0 11.2 50 6.2 W 13 20 7 11 1011.8 1010.0 0.0
14/05:30pm 22.4 20.4 11.5 50 6.2 W 13 24 7 13 1011.9 1010.1 0.0
14/05:00pm 21.7 18.5 11.4 52 5.9 W 19 28 10 15 1011.9 1010.1 0.0
14/04:30pm 22.0 18.9 11.7 52 5.9 W 19 28 10 15 1012.1 1010.3 0.0
14/04:00pm 22.4 19.4 12.1 52 6.0 W 19 30 10 16 1012.1 1010.3 0.0
14/03:30pm 21.6 18.7 11.0 51 6.0 WSW 17 24 9 13 1012.3 1010.5 0.0
14/03:00pm 21.0 21.2 15.8 72 3.2 ESE 9 13 5 7 1012.3 1010.5 0.0
14/02:30pm 18.6 18.0 15.7 83 1.8 E 13 22 7 12 1012.5 1010.7 0.0
14/02:00pm 19.8 19.8 15.2 75 2.8 SE 9 17 5 9 1012.6 1010.8 0.0
14/01:30pm 20.1 18.0 13.6 66 3.8 WSW 17 26 9 14 1012.3 1010.5 0.0
14/01:00pm 19.4 17.9 14.2 72 3.1 WSW 15 20 8 11 1012.4 1010.6 0.0
14/12:30pm 18.5 17.4 15.4 82 1.9 SW 15 22 8 12 1012.4 1010.6 0.0
14/12:00pm 16.8 16.7 16.0 95 0.5 WSW 11 17 6 9 1012.3 1010.5 0.0
14/11:30am 15.9 15.0 15.9 100 0.0 WSW 15 22 8 12 1012.3 1010.5 0.0
14/11:00am 15.4 14.3 15.4 100 0.0 WSW 15 22 8 12 1012.3 1010.5 0.0
14/10:30am 15.3 13.4 15.1 99 0.1 WSW 19 28 10 15 1012.1 1010.3 0.0
14/10:00am 16.6 15.1 15.3 92 0.8 W 17 24 9 13 1012.1 1010.3 0.0
14/09:30am 16.7 16.4 15.4 92 0.8 WSW 11 17 6 9 1011.9 1010.1 0.0
14/09:00am 16.7 17.3 16.7 100 0.0 WSW 9 17 5 9 1011.6 1009.7 0.0
14/08:30am 15.5 15.6 15.5 100 0.0 WSW 9 13 5 7 1011.5 1009.6 0.0
14/08:00am 15.3 15.3 15.3 100 0.0 WSW 9 13 5 7 1011.1 1009.2 0.0
14/07:30am 14.9 14.8 14.9 100 0.0 SSW 9 13 5 7 1010.6 1008.8 0.0
14/07:00am 14.8 14.3 14.8 100 0.0 WSW 11 17 6 9 1010.2 1008.4 0.0
14/06:30am 15.2 15.6 15.2 100 0.0 W 7 13 4 7 1009.7 1007.8 0.0
14/06:00am 15.0 15.5 15.0 100 0.0 SW 6 9 3 5 1009.1 1007.2 0.0
14/05:30am 14.8 16.0 14.8 100 0.0 SW 2 7 1 4 1008.6 1006.8 0.0
14/05:00am 14.8 14.3 14.8 100 0.0 SW 11 17 6 9 1008.4 1006.6 0.0
14/04:30am 14.9 14.0 14.9 100 0.0 SW 13 20 7 11 1008.0 1006.1 0.0
14/04:00am 14.9 14.3 14.7 99 0.1 W 11 15 6 8 1008.1 1006.2 0.0
14/03:30am 15.4 14.7 14.4 94 0.6 W 11 13 6 7 1007.6 1005.7 0.0
14/03:00am 15.8 14.7 14.2 90 0.9 WSW 13 15 7 8 1007.2 1005.3 0.0
14/02:30am 16.3 15.5 14.0 86 1.3 W 11 13 6 7 1007.4 1005.5 0.0
14/02:00am 17.1 15.8 13.8 81 1.9 W 13 17 7 9 1007.6 1005.7 0.0
14/01:30am 17.1 15.8 14.7 86 1.4 WSW 15 19 8 10 1007.8 1005.9 0.0
14/01:00am 17.2 15.9 14.8 86 1.4 W 15 20 8 11 1008.3 1006.4 0.0
14/12:30am 17.8 15.8 14.9 83 1.7 WSW 19 26 10 14 1008.3 1006.4 0.0
14/12:00am 17.9 15.9 15.0 83 1.7 WSW 19 26 10 14 1008.4 1006.6 0.0
 
Date/Time
CDT
Temp
°C
App
Temp
°C
Dew
Point
°C
Rel
Hum
%
Delta-T
°C
Wind Press
QNH
hPa
Press
MSL
hPa
Rain since
9am
mm
Dir  Spd
km/h
Gust
km/h
Spd
kts
Gust
kts
13/11:30pm 18.2 16.3 15.1 82 1.9 WSW 19 30 10 16 1008.5 1006.7 0.0
13/11:00pm 18.5 16.4 14.6 78 2.3 WSW 19 24 10 13 1008.7 1006.9 0.0
13/10:30pm 19.1 17.1 13.9 72 3.1 WSW 17 26 9 14 1008.7 1006.9 0.0
13/10:00pm 19.7 17.6 13.6 68 3.6 WSW 17 26 9 14 1008.3 1006.4 0.0
13/09:30pm 21.0 19.2 12.2 57 5.1 WSW 13 20 7 11 1008.5 1006.7 0.0
13/09:00pm 21.8 20.2 11.5 52 5.9 WSW 11 17 6 9 1008.2 1006.3 0.0
13/08:30pm 22.4 20.3 11.2 49 6.4 W 13 24 7 13 1008.2 1006.3 0.0
13/08:00pm 22.8 19.9 10.9 47 6.8 WSW 17 26 9 14 1007.6 1005.7 0.0
13/07:30pm 23.3 19.9 10.7 45 7.2 WSW 19 33 10 18 1006.8 1005.0 0.0

Latest Capital City Observations: Canberra | Sydney | Melbourne | Brisbane | Adelaide | Perth | Hobart | Darwin

Other Formats:

Comma delimited format used in spreadsheet applications
http://www.bom.gov.au/fwo/IDS60901/IDS60901.94678.axf

JavaScript Object Notation format (JSON) in row-major order
http://www.bom.gov.au/fwo/IDS60901/IDS60901.94678.json